Řízení letového provozu České republiky
Letiste: LKKB Aktualizace: 20.01.2017 22:08:14  UTC
 METAR LKKB 20.01. 22:00 ...
METAR LKKB 202200Z 19003KT 060V210 2000 BR SCT025 M09/M09 Q1034 =
 TAF LKKB 20.01. 17:00 AMD
TAF AMD LKKB 201700Z 2018/2118 VRB02KT 1000 BR BKN030      TEMPO 2018/2108 0600 FZFG BKN002      PROB30 TEMPO 2018/2106 0400 FZFG OVC001      BECMG 2108/2110 2500 BR NSC=